sensor_id;sensor_type;location;lat;lon;timestamp;P1;durP1;ratioP1;P2;durP2;ratioP2
1759;SDS011;877;46.266;20.062;2024-03-06T00:02:07;52.80;;;34.80;;
1759;SDS011;877;46.266;20.062;2024-03-06T00:04:34;51.80;;;33.87;;
1759;SDS011;877;46.266;20.062;2024-03-06T00:07:00;55.43;;;32.53;;
1759;SDS011;877;46.266;20.062;2024-03-06T00:09:27;52.17;;;36.07;;
1759;SDS011;877;46.266;20.062;2024-03-06T00:11:53;57.10;;;34.20;;
1759;SDS011;877;46.266;20.062;2024-03-06T00:14:20;54.10;;;35.23;;
1759;SDS011;877;46.266;20.062;2024-03-06T00:16:50;52.77;;;36.03;;
1759;SDS011;877;46.266;20.062;2024-03-06T00:19:19;53.97;;;36.33;;
1759;SDS011;877;46.266;20.062;2024-03-06T00:21:45;60.57;;;35.03;;
1759;SDS011;877;46.266;20.062;2024-03-06T00:24:12;57.80;;;34.83;;
1759;SDS011;877;46.266;20.062;2024-03-06T00:26:45;51.47;;;33.00;;
1759;SDS011;877;46.266;20.062;2024-03-06T00:29:12;54.57;;;35.80;;
1759;SDS011;877;46.266;20.062;2024-03-06T00:31:45;59.50;;;36.00;;
1759;SDS011;877;46.266;20.062;2024-03-06T00:34:12;55.63;;;35.53;;
1759;SDS011;877;46.266;20.062;2024-03-06T00:36:41;54.60;;;33.77;;
1759;SDS011;877;46.266;20.062;2024-03-06T00:39:07;63.27;;;36.83;;
1759;SDS011;877;46.266;20.062;2024-03-06T00:41:36;54.50;;;33.80;;
1759;SDS011;877;46.266;20.062;2024-03-06T00:44:02;58.33;;;35.50;;
1759;SDS011;877;46.266;20.062;2024-03-06T00:46:29;59.73;;;35.80;;
1759;SDS011;877;46.266;20.062;2024-03-06T00:48:55;59.37;;;37.20;;
1759;SDS011;877;46.266;20.062;2024-03-06T00:51:21;53.10;;;34.73;;
1759;SDS011;877;46.266;20.062;2024-03-06T00:53:48;53.47;;;36.80;;
1759;SDS011;877;46.266;20.062;2024-03-06T00:56:14;56.23;;;36.83;;
1759;SDS011;877;46.266;20.062;2024-03-06T00:58:40;58.03;;;38.33;;
1759;SDS011;877;46.266;20.062;2024-03-06T01:01:06;55.33;;;35.20;;
1759;SDS011;877;46.266;20.062;2024-03-06T01:03:32;59.40;;;35.00;;
1759;SDS011;877;46.266;20.062;2024-03-06T01:05:58;63.83;;;40.00;;
1759;SDS011;877;46.266;20.062;2024-03-06T01:08:24;56.10;;;36.33;;
1759;SDS011;877;46.266;20.062;2024-03-06T01:10:51;54.10;;;34.73;;
1759;SDS011;877;46.266;20.062;2024-03-06T01:13:18;62.10;;;38.10;;
1759;SDS011;877;46.266;20.062;2024-03-06T01:15:44;62.33;;;34.53;;
1759;SDS011;877;46.266;20.062;2024-03-06T01:18:10;55.70;;;33.58;;
1759;SDS011;877;46.266;20.062;2024-03-06T01:20:36;61.77;;;36.57;;
1759;SDS011;877;46.266;20.062;2024-03-06T01:23:03;60.27;;;35.53;;
1759;SDS011;877;46.266;20.062;2024-03-06T01:25:29;67.10;;;36.90;;
1759;SDS011;877;46.266;20.062;2024-03-06T01:27:55;61.87;;;37.87;;
1759;SDS011;877;46.266;20.062;2024-03-06T01:30:21;62.60;;;36.37;;
1759;SDS011;877;46.266;20.062;2024-03-06T01:32:47;58.47;;;36.60;;
1759;SDS011;877;46.266;20.062;2024-03-06T01:35:13;59.80;;;36.70;;
1759;SDS011;877;46.266;20.062;2024-03-06T01:37:39;66.07;;;36.87;;
1759;SDS011;877;46.266;20.062;2024-03-06T01:40:06;59.90;;;35.00;;
1759;SDS011;877;46.266;20.062;2024-03-06T01:42:34;60.93;;;36.20;;
1759;SDS011;877;46.266;20.062;2024-03-06T01:45:01;58.43;;;34.60;;
1759;SDS011;877;46.266;20.062;2024-03-06T01:47:27;57.92;;;35.80;;
1759;SDS011;877;46.266;20.062;2024-03-06T01:49:53;64.23;;;37.30;;
1759;SDS011;877;46.266;20.062;2024-03-06T01:52:20;67.33;;;35.97;;
1759;SDS011;877;46.266;20.062;2024-03-06T01:54:47;64.70;;;37.13;;
1759;SDS011;877;46.266;20.062;2024-03-06T01:57:14;59.97;;;35.42;;
1759;SDS011;877;46.266;20.062;2024-03-06T01:59:42;63.63;;;37.60;;
1759;SDS011;877;46.266;20.062;2024-03-06T02:02:08;61.57;;;36.63;;
1759;SDS011;877;46.266;20.062;2024-03-06T02:04:36;59.33;;;36.38;;
1759;SDS011;877;46.266;20.062;2024-03-06T02:07:03;67.72;;;36.33;;
1759;SDS011;877;46.266;20.062;2024-03-06T02:09:30;64.33;;;37.73;;
1759;SDS011;877;46.266;20.062;2024-03-06T02:11:56;66.00;;;35.77;;
1759;SDS011;877;46.266;20.062;2024-03-06T02:14:22;60.40;;;33.97;;
1759;SDS011;877;46.266;20.062;2024-03-06T02:16:49;54.10;;;32.30;;
1759;SDS011;877;46.266;20.062;2024-03-06T02:19:15;57.42;;;36.58;;
1759;SDS011;877;46.266;20.062;2024-03-06T02:21:41;57.83;;;35.70;;
1759;SDS011;877;46.266;20.062;2024-03-06T02:24:07;58.60;;;35.47;;
1759;SDS011;877;46.266;20.062;2024-03-06T02:26:36;61.85;;;34.88;;
1759;SDS011;877;46.266;20.062;2024-03-06T02:29:03;58.95;;;35.55;;
1759;SDS011;877;46.266;20.062;2024-03-06T02:31:31;66.82;;;38.67;;
1759;SDS011;877;46.266;20.062;2024-03-06T02:33:58;62.35;;;35.30;;
1759;SDS011;877;46.266;20.062;2024-03-06T02:36:25;58.72;;;34.85;;
1759;SDS011;877;46.266;20.062;2024-03-06T02:38:51;60.67;;;35.28;;
1759;SDS011;877;46.266;20.062;2024-03-06T02:41:17;57.97;;;34.40;;
1759;SDS011;877;46.266;20.062;2024-03-06T02:43:43;56.38;;;33.80;;
1759;SDS011;877;46.266;20.062;2024-03-06T02:46:10;55.15;;;35.35;;
1759;SDS011;877;46.266;20.062;2024-03-06T02:48:36;59.38;;;35.25;;
1759;SDS011;877;46.266;20.062;2024-03-06T02:51:02;60.92;;;35.97;;
1759;SDS011;877;46.266;20.062;2024-03-06T02:53:29;66.53;;;35.83;;
1759;SDS011;877;46.266;20.062;2024-03-06T02:55:56;63.33;;;38.38;;
1759;SDS011;877;46.266;20.062;2024-03-06T02:58:22;59.72;;;36.03;;
1759;SDS011;877;46.266;20.062;2024-03-06T03:00:48;64.22;;;35.80;;
1759;SDS011;877;46.266;20.062;2024-03-06T03:03:14;56.83;;;35.28;;
1759;SDS011;877;46.266;20.062;2024-03-06T03:05:41;65.57;;;36.30;;
1759;SDS011;877;46.266;20.062;2024-03-06T03:08:07;61.08;;;36.15;;
1759;SDS011;877;46.266;20.062;2024-03-06T03:10:33;62.67;;;38.35;;
1759;SDS011;877;46.266;20.062;2024-03-06T03:13:01;63.72;;;36.30;;
1759;SDS011;877;46.266;20.062;2024-03-06T03:15:28;62.45;;;35.40;;
1759;SDS011;877;46.266;20.062;2024-03-06T03:17:54;61.25;;;36.70;;
1759;SDS011;877;46.266;20.062;2024-03-06T03:20:20;60.93;;;35.30;;
1759;SDS011;877;46.266;20.062;2024-03-06T03:22:46;63.80;;;37.83;;
1759;SDS011;877;46.266;20.062;2024-03-06T03:25:14;60.42;;;35.00;;
1759;SDS011;877;46.266;20.062;2024-03-06T03:27:40;66.05;;;34.67;;
1759;SDS011;877;46.266;20.062;2024-03-06T03:30:10;62.65;;;37.22;;
1759;SDS011;877;46.266;20.062;2024-03-06T03:32:36;59.38;;;36.85;;
1759;SDS011;877;46.266;20.062;2024-03-06T03:35:06;59.70;;;34.78;;
1759;SDS011;877;46.266;20.062;2024-03-06T03:37:32;67.93;;;36.20;;
1759;SDS011;877;46.266;20.062;2024-03-06T03:39:58;64.13;;;36.30;;
1759;SDS011;877;46.266;20.062;2024-03-06T03:42:25;57.47;;;33.08;;
1759;SDS011;877;46.266;20.062;2024-03-06T03:44:51;63.20;;;36.50;;
1759;SDS011;877;46.266;20.062;2024-03-06T03:47:17;70.25;;;36.00;;
1759;SDS011;877;46.266;20.062;2024-03-06T03:49:44;62.75;;;35.15;;
1759;SDS011;877;46.266;20.062;2024-03-06T03:52:11;65.28;;;36.28;;
1759;SDS011;877;46.266;20.062;2024-03-06T03:54:37;57.33;;;33.28;;
1759;SDS011;877;46.266;20.062;2024-03-06T03:57:03;66.35;;;39.00;;
1759;SDS011;877;46.266;20.062;2024-03-06T03:59:29;62.28;;;34.85;;
1759;SDS011;877;46.266;20.062;2024-03-06T04:01:55;70.80;;;36.10;;
1759;SDS011;877;46.266;20.062;2024-03-06T04:04:22;61.85;;;34.55;;
1759;SDS011;877;46.266;20.062;2024-03-06T04:06:48;52.75;;;33.17;;
1759;SDS011;877;46.266;20.062;2024-03-06T04:09:14;60.20;;;34.03;;
1759;SDS011;877;46.266;20.062;2024-03-06T04:11:41;61.60;;;35.00;;
1759;SDS011;877;46.266;20.062;2024-03-06T04:14:09;56.92;;;33.85;;
1759;SDS011;877;46.266;20.062;2024-03-06T04:16:35;55.47;;;35.35;;
1759;SDS011;877;46.266;20.062;2024-03-06T04:19:01;56.10;;;35.35;;
1759;SDS011;877;46.266;20.062;2024-03-06T04:21:28;58.47;;;35.72;;
1759;SDS011;877;46.266;20.062;2024-03-06T04:23:55;65.05;;;37.88;;
1759;SDS011;877;46.266;20.062;2024-03-06T04:26:21;58.47;;;35.75;;
1759;SDS011;877;46.266;20.062;2024-03-06T04:28:48;59.63;;;35.83;;
1759;SDS011;877;46.266;20.062;2024-03-06T04:31:14;64.65;;;38.50;;
1759;SDS011;877;46.266;20.062;2024-03-06T04:33:41;72.18;;;38.22;;
1759;SDS011;877;46.266;20.062;2024-03-06T04:36:07;68.45;;;37.47;;
1759;SDS011;877;46.266;20.062;2024-03-06T04:38:34;67.10;;;39.42;;
1759;SDS011;877;46.266;20.062;2024-03-06T04:41:00;76.47;;;39.75;;
1759;SDS011;877;46.266;20.062;2024-03-06T04:43:26;67.85;;;40.28;;
1759;SDS011;877;46.266;20.062;2024-03-06T04:45:52;67.50;;;41.05;;
1759;SDS011;877;46.266;20.062;2024-03-06T04:48:18;72.25;;;38.72;;
1759;SDS011;877;46.266;20.062;2024-03-06T04:50:44;73.60;;;38.05;;
1759;SDS011;877;46.266;20.062;2024-03-06T04:53:11;69.00;;;37.83;;
1759;SDS011;877;46.266;20.062;2024-03-06T04:55:37;65.60;;;37.08;;
1759;SDS011;877;46.266;20.062;2024-03-06T04:58:04;65.97;;;39.72;;
1759;SDS011;877;46.266;20.062;2024-03-06T05:00:30;68.53;;;38.53;;
1759;SDS011;877;46.266;20.062;2024-03-06T05:02:56;68.43;;;38.33;;
1759;SDS011;877;46.266;20.062;2024-03-06T05:05:22;69.60;;;39.00;;
1759;SDS011;877;46.266;20.062;2024-03-06T05:07:50;70.65;;;38.60;;
1759;SDS011;877;46.266;20.062;2024-03-06T05:10:16;73.20;;;40.05;;
1759;SDS011;877;46.266;20.062;2024-03-06T05:12:42;70.32;;;40.13;;
1759;SDS011;877;46.266;20.062;2024-03-06T05:15:09;68.20;;;39.75;;
1759;SDS011;877;46.266;20.062;2024-03-06T05:17:36;68.50;;;40.38;;
1759;SDS011;877;46.266;20.062;2024-03-06T05:20:02;79.38;;;39.72;;
1759;SDS011;877;46.266;20.062;2024-03-06T05:22:29;77.22;;;39.70;;
1759;SDS011;877;46.266;20.062;2024-03-06T05:24:55;74.78;;;41.70;;
1759;SDS011;877;46.266;20.062;2024-03-06T05:27:22;84.05;;;42.03;;
1759;SDS011;877;46.266;20.062;2024-03-06T05:29:48;67.72;;;40.55;;
1759;SDS011;877;46.266;20.062;2024-03-06T05:32:15;68.57;;;39.20;;
1759;SDS011;877;46.266;20.062;2024-03-06T05:34:41;64.45;;;36.83;;
1759;SDS011;877;46.266;20.062;2024-03-06T05:37:07;73.70;;;42.53;;
1759;SDS011;877;46.266;20.062;2024-03-06T05:39:33;67.70;;;41.20;;
1759;SDS011;877;46.266;20.062;2024-03-06T05:42:01;79.82;;;40.42;;
1759;SDS011;877;46.266;20.062;2024-03-06T05:44:30;78.38;;;41.40;;
1759;SDS011;877;46.266;20.062;2024-03-06T05:46:57;74.82;;;42.10;;
1759;SDS011;877;46.266;20.062;2024-03-06T05:49:23;78.05;;;42.83;;
1759;SDS011;877;46.266;20.062;2024-03-06T05:51:50;69.68;;;39.17;;
1759;SDS011;877;46.266;20.062;2024-03-06T05:54:17;77.07;;;40.38;;
1759;SDS011;877;46.266;20.062;2024-03-06T05:56:45;76.28;;;41.58;;
1759;SDS011;877;46.266;20.062;2024-03-06T05:59:13;75.10;;;42.35;;
1759;SDS011;877;46.266;20.062;2024-03-06T06:01:41;70.13;;;39.42;;
1759;SDS011;877;46.266;20.062;2024-03-06T06:04:10;77.63;;;40.83;;
1759;SDS011;877;46.266;20.062;2024-03-06T06:06:36;67.03;;;38.33;;
1759;SDS011;877;46.266;20.062;2024-03-06T06:09:03;64.72;;;38.80;;
1759;SDS011;877;46.266;20.062;2024-03-06T06:11:37;66.10;;;38.35;;
1759;SDS011;877;46.266;20.062;2024-03-06T06:14:03;79.13;;;42.30;;
1759;SDS011;877;46.266;20.062;2024-03-06T06:16:39;74.70;;;40.90;;
1759;SDS011;877;46.266;20.062;2024-03-06T06:19:06;67.97;;;39.08;;
1759;SDS011;877;46.266;20.062;2024-03-06T06:21:33;66.25;;;41.42;;
1759;SDS011;877;46.266;20.062;2024-03-06T06:24:01;73.85;;;40.67;;
1759;SDS011;877;46.266;20.062;2024-03-06T06:26:27;77.40;;;39.95;;
1759;SDS011;877;46.266;20.062;2024-03-06T06:28:53;59.50;;;36.72;;
1759;SDS011;877;46.266;20.062;2024-03-06T06:31:19;60.00;;;38.65;;
1759;SDS011;877;46.266;20.062;2024-03-06T06:33:45;67.60;;;38.42;;
1759;SDS011;877;46.266;20.062;2024-03-06T06:36:12;60.47;;;36.20;;
1759;SDS011;877;46.266;20.062;2024-03-06T06:38:38;55.55;;;34.58;;
1759;SDS011;877;46.266;20.062;2024-03-06T06:41:04;46.53;;;31.10;;
1759;SDS011;877;46.266;20.062;2024-03-06T06:43:30;49.07;;;31.70;;
1759;SDS011;877;46.266;20.062;2024-03-06T06:45:56;46.23;;;30.10;;
1759;SDS011;877;46.266;20.062;2024-03-06T06:48:22;47.03;;;30.43;;
1759;SDS011;877;46.266;20.062;2024-03-06T06:50:48;47.13;;;29.97;;
1759;SDS011;877;46.266;20.062;2024-03-06T06:53:15;42.07;;;28.67;;
1759;SDS011;877;46.266;20.062;2024-03-06T06:55:41;46.00;;;30.17;;
1759;SDS011;877;46.266;20.062;2024-03-06T06:58:07;43.43;;;28.33;;
1759;SDS011;877;46.266;20.062;2024-03-06T07:00:34;44.10;;;28.73;;
1759;SDS011;877;46.266;20.062;2024-03-06T07:03:02;40.43;;;28.47;;
1759;SDS011;877;46.266;20.062;2024-03-06T07:05:29;42.43;;;27.37;;
1759;SDS011;877;46.266;20.062;2024-03-06T07:07:55;43.17;;;27.37;;
1759;SDS011;877;46.266;20.062;2024-03-06T07:10:22;41.90;;;28.20;;
1759;SDS011;877;46.266;20.062;2024-03-06T07:12:48;40.00;;;27.73;;
1759;SDS011;877;46.266;20.062;2024-03-06T07:15:14;34.33;;;24.90;;
1759;SDS011;877;46.266;20.062;2024-03-06T07:17:40;37.10;;;25.93;;
1759;SDS011;877;46.266;20.062;2024-03-06T07:20:07;36.63;;;24.60;;
1759;SDS011;877;46.266;20.062;2024-03-06T07:22:34;38.50;;;26.80;;
1759;SDS011;877;46.266;20.062;2024-03-06T07:25:00;31.73;;;23.93;;
1759;SDS011;877;46.266;20.062;2024-03-06T07:27:30;32.93;;;22.93;;
1759;SDS011;877;46.266;20.062;2024-03-06T07:29:57;54.73;;;41.30;;
1759;SDS011;877;46.266;20.062;2024-03-06T07:32:23;34.50;;;25.07;;
1759;SDS011;877;46.266;20.062;2024-03-06T07:34:49;32.63;;;22.20;;
1759;SDS011;877;46.266;20.062;2024-03-06T07:37:15;31.10;;;22.93;;
1759;SDS011;877;46.266;20.062;2024-03-06T07:39:41;31.40;;;23.03;;
1759;SDS011;877;46.266;20.062;2024-03-06T07:42:07;29.00;;;21.17;;
1759;SDS011;877;46.266;20.062;2024-03-06T07:44:35;29.23;;;21.70;;
1759;SDS011;877;46.266;20.062;2024-03-06T07:47:02;29.30;;;21.03;;
1759;SDS011;877;46.266;20.062;2024-03-06T07:49:28;31.53;;;22.90;;
1759;SDS011;877;46.266;20.062;2024-03-06T07:51:56;32.43;;;22.73;;
1759;SDS011;877;46.266;20.062;2024-03-06T07:54:24;28.47;;;21.27;;
1759;SDS011;877;46.266;20.062;2024-03-06T07:56:50;25.90;;;20.20;;
1759;SDS011;877;46.266;20.062;2024-03-06T07:59:16;31.70;;;21.80;;
1759;SDS011;877;46.266;20.062;2024-03-06T08:01:43;25.67;;;19.67;;
1759;SDS011;877;46.266;20.062;2024-03-06T08:04:09;35.03;;;21.23;;
1759;SDS011;877;46.266;20.062;2024-03-06T08:06:35;28.57;;;19.73;;
1759;SDS011;877;46.266;20.062;2024-03-06T08:09:03;25.97;;;20.60;;
1759;SDS011;877;46.266;20.062;2024-03-06T08:11:29;25.53;;;19.57;;
1759;SDS011;877;46.266;20.062;2024-03-06T08:13:59;26.17;;;20.60;;
1759;SDS011;877;46.266;20.062;2024-03-06T08:16:27;27.27;;;20.50;;
1759;SDS011;877;46.266;20.062;2024-03-06T08:18:54;28.33;;;21.10;;
1759;SDS011;877;46.266;20.062;2024-03-06T08:21:22;25.80;;;19.20;;
1759;SDS011;877;46.266;20.062;2024-03-06T08:23:48;22.63;;;18.50;;
1759;SDS011;877;46.266;20.062;2024-03-06T08:26:14;24.50;;;19.23;;
1759;SDS011;877;46.266;20.062;2024-03-06T08:28:40;22.90;;;17.80;;
1759;SDS011;877;46.266;20.062;2024-03-06T08:31:07;25.20;;;19.40;;
1759;SDS011;877;46.266;20.062;2024-03-06T08:33:33;24.20;;;18.97;;
1759;SDS011;877;46.266;20.062;2024-03-06T08:35:59;22.13;;;16.93;;
1759;SDS011;877;46.266;20.062;2024-03-06T08:38:25;23.70;;;19.13;;
1759;SDS011;877;46.266;20.062;2024-03-06T08:40:51;23.13;;;18.67;;
1759;SDS011;877;46.266;20.062;2024-03-06T08:43:17;25.80;;;18.80;;
1759;SDS011;877;46.266;20.062;2024-03-06T08:45:44;25.80;;;18.07;;
1759;SDS011;877;46.266;20.062;2024-03-06T08:48:11;22.53;;;18.30;;
1759;SDS011;877;46.266;20.062;2024-03-06T08:50:37;23.07;;;19.00;;
1759;SDS011;877;46.266;20.062;2024-03-06T08:53:03;22.67;;;18.83;;
1759;SDS011;877;46.266;20.062;2024-03-06T08:55:29;24.27;;;19.77;;
1759;SDS011;877;46.266;20.062;2024-03-06T08:57:55;23.60;;;18.50;;
1759;SDS011;877;46.266;20.062;2024-03-06T09:00:21;22.23;;;18.10;;
1759;SDS011;877;46.266;20.062;2024-03-06T09:02:47;21.40;;;17.70;;
1759;SDS011;877;46.266;20.062;2024-03-06T09:05:15;23.77;;;18.80;;
1759;SDS011;877;46.266;20.062;2024-03-06T09:07:41;22.87;;;17.40;;
1759;SDS011;877;46.266;20.062;2024-03-06T09:10:07;24.10;;;18.40;;
1759;SDS011;877;46.266;20.062;2024-03-06T09:12:34;23.53;;;18.17;;
1759;SDS011;877;46.266;20.062;2024-03-06T09:15:01;23.00;;;18.70;;
1759;SDS011;877;46.266;20.062;2024-03-06T09:17:27;22.80;;;18.10;;
1759;SDS011;877;46.266;20.062;2024-03-06T09:19:54;21.83;;;17.97;;
1759;SDS011;877;46.266;20.062;2024-03-06T09:22:20;22.10;;;17.73;;
1759;SDS011;877;46.266;20.062;2024-03-06T09:24:46;25.17;;;18.80;;
1759;SDS011;877;46.266;20.062;2024-03-06T09:27:13;23.77;;;18.87;;
1759;SDS011;877;46.266;20.062;2024-03-06T09:29:39;21.50;;;18.20;;
1759;SDS011;877;46.266;20.062;2024-03-06T09:32:06;24.10;;;18.43;;
1759;SDS011;877;46.266;20.062;2024-03-06T09:34:32;22.60;;;18.70;;
1759;SDS011;877;46.266;20.062;2024-03-06T09:36:58;21.30;;;17.27;;
1759;SDS011;877;46.266;20.062;2024-03-06T09:39:24;22.17;;;18.37;;
1759;SDS011;877;46.266;20.062;2024-03-06T09:41:50;20.90;;;17.50;;
1759;SDS011;877;46.266;20.062;2024-03-06T09:44:17;21.67;;;17.73;;
1759;SDS011;877;46.266;20.062;2024-03-06T09:46:43;23.77;;;18.70;;
1759;SDS011;877;46.266;20.062;2024-03-06T09:49:19;23.37;;;19.20;;
1759;SDS011;877;46.266;20.062;2024-03-06T09:51:48;21.43;;;17.17;;
1759;SDS011;877;46.266;20.062;2024-03-06T09:54:19;22.60;;;18.60;;
1759;SDS011;877;46.266;20.062;2024-03-06T09:56:46;24.63;;;18.80;;
1759;SDS011;877;46.266;20.062;2024-03-06T09:59:12;24.27;;;17.97;;
1759;SDS011;877;46.266;20.062;2024-03-06T10:01:40;21.43;;;16.90;;
1759;SDS011;877;46.266;20.062;2024-03-06T10:04:24;25.20;;;18.23;;
1759;SDS011;877;46.266;20.062;2024-03-06T10:06:54;22.50;;;18.53;;
1759;SDS011;877;46.266;20.062;2024-03-06T10:09:21;23.13;;;18.67;;
1759;SDS011;877;46.266;20.062;2024-03-06T10:11:48;22.70;;;17.43;;
1759;SDS011;877;46.266;20.062;2024-03-06T10:14:14;25.43;;;18.67;;
1759;SDS011;877;46.266;20.062;2024-03-06T10:17:02;22.97;;;18.50;;
1759;SDS011;877;46.266;20.062;2024-03-06T10:19:28;24.33;;;18.03;;
1759;SDS011;877;46.266;20.062;2024-03-06T10:21:58;22.47;;;17.57;;
1759;SDS011;877;46.266;20.062;2024-03-06T10:24:24;24.60;;;18.40;;
1759;SDS011;877;46.266;20.062;2024-03-06T10:26:51;25.33;;;17.83;;
1759;SDS011;877;46.266;20.062;2024-03-06T10:29:20;23.63;;;18.17;;
1759;SDS011;877;46.266;20.062;2024-03-06T10:31:53;26.27;;;19.60;;
1759;SDS011;877;46.266;20.062;2024-03-06T10:34:24;25.03;;;18.30;;
1759;SDS011;877;46.266;20.062;2024-03-06T10:36:53;23.33;;;17.47;;
1759;SDS011;877;46.266;20.062;2024-03-06T10:39:20;21.90;;;17.60;;
1759;SDS011;877;46.266;20.062;2024-03-06T10:41:49;27.40;;;18.20;;
1759;SDS011;877;46.266;20.062;2024-03-06T10:44:17;25.53;;;18.07;;
1759;SDS011;877;46.266;20.062;2024-03-06T10:46:45;27.10;;;20.23;;
1759;SDS011;877;46.266;20.062;2024-03-06T10:49:12;22.70;;;17.00;;
1759;SDS011;877;46.266;20.062;2024-03-06T10:51:42;25.80;;;18.93;;
1759;SDS011;877;46.266;20.062;2024-03-06T10:54:09;24.93;;;18.63;;
1759;SDS011;877;46.266;20.062;2024-03-06T10:56:45;26.00;;;18.33;;
1759;SDS011;877;46.266;20.062;2024-03-06T10:59:11;23.10;;;18.20;;
1759;SDS011;877;46.266;20.062;2024-03-06T11:01:38;23.00;;;18.30;;
1759;SDS011;877;46.266;20.062;2024-03-06T11:04:05;21.30;;;16.27;;
1759;SDS011;877;46.266;20.062;2024-03-06T11:06:32;23.50;;;16.90;;
1759;SDS011;877;46.266;20.062;2024-03-06T11:08:59;29.90;;;21.30;;
1759;SDS011;877;46.266;20.062;2024-03-06T11:11:26;22.37;;;17.67;;
1759;SDS011;877;46.266;20.062;2024-03-06T11:13:56;21.13;;;16.70;;
1759;SDS011;877;46.266;20.062;2024-03-06T11:16:31;23.00;;;19.10;;
1759;SDS011;877;46.266;20.062;2024-03-06T11:19:06;23.00;;;18.03;;
1759;SDS011;877;46.266;20.062;2024-03-06T11:21:33;20.50;;;16.73;;
1759;SDS011;877;46.266;20.062;2024-03-06T11:26:41;21.70;;;16.93;;
1759;SDS011;877;46.266;20.062;2024-03-06T11:29:09;23.30;;;17.97;;
1759;SDS011;877;46.266;20.062;2024-03-06T11:31:35;23.17;;;17.60;;
1759;SDS011;877;46.266;20.062;2024-03-06T11:34:02;24.50;;;16.70;;
1759;SDS011;877;46.266;20.062;2024-03-06T11:36:30;20.63;;;16.20;;
1759;SDS011;877;46.266;20.062;2024-03-06T11:39:01;19.80;;;15.63;;
1759;SDS011;877;46.266;20.062;2024-03-06T11:41:29;19.47;;;16.07;;
1759;SDS011;877;46.266;20.062;2024-03-06T11:43:56;20.73;;;16.50;;
1759;SDS011;877;46.266;20.062;2024-03-06T11:46:23;21.90;;;16.57;;
1759;SDS011;877;46.266;20.062;2024-03-06T11:48:52;20.50;;;16.33;;
1759;SDS011;877;46.266;20.062;2024-03-06T11:51:19;19.87;;;15.73;;
1759;SDS011;877;46.266;20.062;2024-03-06T11:53:45;20.83;;;14.83;;
1759;SDS011;877;46.266;20.062;2024-03-06T11:56:11;19.60;;;16.30;;
1759;SDS011;877;46.266;20.062;2024-03-06T11:58:37;23.10;;;15.57;;
1759;SDS011;877;46.266;20.062;2024-03-06T12:01:03;23.87;;;15.23;;
1759;SDS011;877;46.266;20.062;2024-03-06T12:03:30;18.67;;;14.60;;
1759;SDS011;877;46.266;20.062;2024-03-06T12:05:56;19.27;;;15.53;;
1759;SDS011;877;46.266;20.062;2024-03-06T12:08:24;15.37;;;13.53;;
1759;SDS011;877;46.266;20.062;2024-03-06T12:10:50;17.53;;;15.03;;
1759;SDS011;877;46.266;20.062;2024-03-06T12:13:17;22.37;;;14.83;;
1759;SDS011;877;46.266;20.062;2024-03-06T12:15:43;18.13;;;15.37;;
1759;SDS011;877;46.266;20.062;2024-03-06T12:18:10;17.20;;;15.40;;
1759;SDS011;877;46.266;20.062;2024-03-06T12:20:40;17.60;;;14.90;;
1759;SDS011;877;46.266;20.062;2024-03-06T12:23:06;17.13;;;13.20;;
1759;SDS011;877;46.266;20.062;2024-03-06T12:25:32;17.10;;;13.27;;
1759;SDS011;877;46.266;20.062;2024-03-06T12:28:06;17.47;;;14.87;;
1759;SDS011;877;46.266;20.062;2024-03-06T12:30:42;17.90;;;14.93;;
1759;SDS011;877;46.266;20.062;2024-03-06T12:33:09;19.30;;;14.93;;
1759;SDS011;877;46.266;20.062;2024-03-06T12:35:39;18.57;;;13.77;;
1759;SDS011;877;46.266;20.062;2024-03-06T12:38:12;17.60;;;14.90;;
1759;SDS011;877;46.266;20.062;2024-03-06T12:40:39;17.77;;;14.63;;
1759;SDS011;877;46.266;20.062;2024-03-06T12:43:05;20.87;;;14.10;;
1759;SDS011;877;46.266;20.062;2024-03-06T12:45:32;16.80;;;14.50;;
1759;SDS011;877;46.266;20.062;2024-03-06T12:47:58;18.27;;;14.27;;
1759;SDS011;877;46.266;20.062;2024-03-06T12:50:24;17.07;;;13.00;;
1759;SDS011;877;46.266;20.062;2024-03-06T12:52:50;15.17;;;13.07;;
1759;SDS011;877;46.266;20.062;2024-03-06T12:55:17;17.23;;;14.20;;
1759;SDS011;877;46.266;20.062;2024-03-06T12:57:45;15.47;;;12.90;;
1759;SDS011;877;46.266;20.062;2024-03-06T13:00:12;18.53;;;14.37;;
1759;SDS011;877;46.266;20.062;2024-03-06T13:02:42;18.10;;;13.90;;
1759;SDS011;877;46.266;20.062;2024-03-06T13:05:11;18.50;;;14.37;;
1759;SDS011;877;46.266;20.062;2024-03-06T13:07:38;16.67;;;13.37;;
1759;SDS011;877;46.266;20.062;2024-03-06T13:10:07;16.23;;;13.33;;
1759;SDS011;877;46.266;20.062;2024-03-06T13:12:36;18.70;;;13.40;;
1759;SDS011;877;46.266;20.062;2024-03-06T13:15:02;17.17;;;12.20;;
1759;SDS011;877;46.266;20.062;2024-03-06T13:17:29;16.73;;;13.67;;
1759;SDS011;877;46.266;20.062;2024-03-06T13:19:55;17.07;;;12.97;;
1759;SDS011;877;46.266;20.062;2024-03-06T13:22:22;17.57;;;14.27;;
1759;SDS011;877;46.266;20.062;2024-03-06T13:24:48;17.70;;;13.33;;
1759;SDS011;877;46.266;20.062;2024-03-06T13:27:14;18.07;;;13.83;;
1759;SDS011;877;46.266;20.062;2024-03-06T13:29:40;16.27;;;13.90;;
1759;SDS011;877;46.266;20.062;2024-03-06T13:32:06;16.70;;;13.60;;
1759;SDS011;877;46.266;20.062;2024-03-06T13:34:33;18.27;;;13.40;;
1759;SDS011;877;46.266;20.062;2024-03-06T13:36:59;17.80;;;12.30;;
1759;SDS011;877;46.266;20.062;2024-03-06T13:39:25;14.90;;;11.93;;
1759;SDS011;877;46.266;20.062;2024-03-06T13:41:51;17.17;;;12.27;;
1759;SDS011;877;46.266;20.062;2024-03-06T13:44:17;17.47;;;11.97;;
1759;SDS011;877;46.266;20.062;2024-03-06T13:46:43;16.20;;;12.80;;
1759;SDS011;877;46.266;20.062;2024-03-06T13:49:12;19.00;;;13.40;;
1759;SDS011;877;46.266;20.062;2024-03-06T13:51:48;19.00;;;13.87;;
1759;SDS011;877;46.266;20.062;2024-03-06T13:54:14;31.63;;;27.53;;
1759;SDS011;877;46.266;20.062;2024-03-06T13:56:40;17.67;;;13.90;;
1759;SDS011;877;46.266;20.062;2024-03-06T13:59:07;16.43;;;13.37;;
1759;SDS011;877;46.266;20.062;2024-03-06T14:01:33;19.60;;;13.80;;
1759;SDS011;877;46.266;20.062;2024-03-06T14:03:59;16.70;;;13.10;;
1759;SDS011;877;46.266;20.062;2024-03-06T14:06:25;14.60;;;12.33;;
1759;SDS011;877;46.266;20.062;2024-03-06T14:08:52;14.20;;;12.43;;
1759;SDS011;877;46.266;20.062;2024-03-06T14:11:20;19.00;;;14.47;;
1759;SDS011;877;46.266;20.062;2024-03-06T14:13:46;16.77;;;13.57;;
1759;SDS011;877;46.266;20.062;2024-03-06T14:16:12;17.67;;;14.20;;
1759;SDS011;877;46.266;20.062;2024-03-06T14:18:38;17.77;;;13.03;;
1759;SDS011;877;46.266;20.062;2024-03-06T14:21:04;16.03;;;13.10;;
1759;SDS011;877;46.266;20.062;2024-03-06T14:23:30;18.17;;;13.13;;
1759;SDS011;877;46.266;20.062;2024-03-06T14:25:57;14.87;;;12.00;;
1759;SDS011;877;46.266;20.062;2024-03-06T14:28:23;20.63;;;12.77;;
1759;SDS011;877;46.266;20.062;2024-03-06T14:30:49;15.90;;;12.50;;
1759;SDS011;877;46.266;20.062;2024-03-06T14:33:15;18.63;;;13.73;;
1759;SDS011;877;46.266;20.062;2024-03-06T14:35:41;15.67;;;12.00;;
1759;SDS011;877;46.266;20.062;2024-03-06T14:38:08;17.83;;;13.13;;
1759;SDS011;877;46.266;20.062;2024-03-06T14:40:34;15.30;;;11.93;;
1759;SDS011;877;46.266;20.062;2024-03-06T14:43:01;17.50;;;12.83;;
1759;SDS011;877;46.266;20.062;2024-03-06T14:45:27;16.93;;;12.07;;
1759;SDS011;877;46.266;20.062;2024-03-06T14:47:53;18.10;;;12.60;;
1759;SDS011;877;46.266;20.062;2024-03-06T14:50:20;18.30;;;13.40;;